Time;durP1;ratioP1;P1;durP2;ratioP2;P2;SDS_P1;SDS_P2;PMS_P1;PMS_P2;Temp;Humidity;BMP_temperature;BMP_pressure;BME280_temperature;BME280_humidity;BME280_pressure;Samples;Min_cycle;Max_cycle;Signal;HPM_P1;HPM_P2
2020/12/13 00:00:14;;;;;;;14.10;7.35;;;;;13.80;100331.00;;;;5089448;28;20230;-79
2020/12/13 00:02:42;;;;;;;16.92;7.75;;;;;13.80;100322.00;;;;5095780;28;20285;-79
2020/12/13 00:05:09;;;;;;;13.00;6.97;;;;;13.80;100321.00;;;;5087656;28;20201;-79
2020/12/13 00:07:36;;;;;;;16.80;8.20;;;;;13.80;100325.00;;;;5087442;28;20210;-79
2020/12/13 00:10:04;;;;;;;15.25;7.45;;;;;13.80;100324.00;;;;5093468;28;20205;-79
2020/12/13 00:12:30;;;;;;;14.70;7.57;;;;;13.80;100315.00;;;;5102442;28;20202;-79
2020/12/13 00:14:57;;;;;;;14.15;7.70;;;;;13.80;100330.00;;;;5090613;28;20194;-79
2020/12/13 00:17:24;;;;;;;15.20;7.40;;;;;13.90;100330.00;;;;5094296;28;20194;-79
2020/12/13 00:19:51;;;;;;;14.90;6.65;;;;;13.80;100338.00;;;;5106425;28;20228;-79
2020/12/13 00:22:18;;;;;;;14.63;7.30;;;;;13.80;100337.00;;;;5098499;28;20193;-79
2020/12/13 00:24:45;;;;;;;14.75;8.13;;;;;13.90;100343.00;;;;5104217;28;20995;-79
2020/12/13 00:27:13;;;;;;;15.02;7.15;;;;;13.90;100347.00;;;;5091181;28;20674;-79
2020/12/13 00:29:40;;;;;;;14.05;6.50;;;;;13.90;100346.00;;;;5096427;28;20204;-79
2020/12/13 00:32:07;;;;;;;11.95;6.45;;;;;13.90;100346.00;;;;5091807;28;20207;-79
2020/12/13 00:34:34;;;;;;;13.73;6.43;;;;;13.90;100342.00;;;;5107385;28;20193;-79
2020/12/13 00:37:01;;;;;;;14.07;6.32;;;;;13.90;100343.00;;;;5111840;28;20201;-79
2020/12/13 00:39:29;;;;;;;10.10;5.88;;;;;13.90;100340.00;;;;5105990;28;20221;-79
2020/12/13 00:41:56;;;;;;;13.25;6.85;;;;;13.90;100340.00;;;;5074293;28;20203;-79
2020/12/13 00:44:23;;;;;;;9.15;5.78;;;;;13.90;100342.00;;;;5110460;28;20196;-79
2020/12/13 00:46:50;;;;;;;14.63;7.28;;;;;13.90;100343.00;;;;5091058;28;20194;-79
2020/12/13 00:49:17;;;;;;;13.38;6.43;;;;;13.90;100349.00;;;;5090307;28;20203;-79
2020/12/13 00:51:44;;;;;;;14.95;6.90;;;;;13.90;100346.00;;;;5094218;28;20564;-79
2020/12/13 00:54:11;;;;;;;13.95;6.78;;;;;13.90;100348.00;;;;5090003;28;20199;-79
2020/12/13 00:56:38;;;;;;;14.25;6.63;;;;;13.90;100343.00;;;;5098388;28;20692;-79
2020/12/13 00:59:05;;;;;;;16.42;6.70;;;;;13.90;100341.00;;;;5104709;28;20223;-79
2020/12/13 01:01:32;;;;;;;15.60;7.38;;;;;13.90;100350.00;;;;5106888;28;20204;-79
2020/12/13 01:03:58;;;;;;;13.20;6.72;;;;;13.90;100349.00;;;;5094638;28;20205;-79
2020/12/13 01:06:26;;;;;;;12.20;6.60;;;;;13.90;100356.00;;;;5102896;28;20198;-79
2020/12/13 01:08:54;;;;;;;14.65;7.68;;;;;13.90;100354.00;;;;5110786;28;20205;-79
2020/12/13 01:11:26;;;;;;;11.77;6.28;;;;;13.90;100358.00;;;;5108078;28;20667;-79
2020/12/13 01:13:54;;;;;;;15.30;7.10;;;;;13.90;100355.00;;;;5099798;28;20199;-80
2020/12/13 01:16:21;;;;;;;11.27;6.32;;;;;13.90;100353.00;;;;5108641;28;20205;-79
2020/12/13 01:18:48;;;;;;;22.38;5.72;;;;;13.90;100355.00;;;;5097358;28;20191;-80
2020/12/13 01:21:17;;;;;;;13.50;7.53;;;;;13.90;100364.00;;;;5090674;28;20207;-79
2020/12/13 01:23:44;;;;;;;14.55;6.00;;;;;13.90;100362.00;;;;5101204;28;20208;-80
2020/12/13 01:26:12;;;;;;;12.30;6.82;;;;;13.90;100373.00;;;;5110051;28;20574;-79
2020/12/13 01:28:40;;;;;;;13.80;6.72;;;;;13.90;100373.00;;;;5099145;28;20209;-79
2020/12/13 01:31:08;;;;;;;14.90;6.93;;;;;13.90;100387.00;;;;5089283;28;20202;-79
2020/12/13 01:33:35;;;;;;;11.15;6.18;;;;;13.90;100393.00;;;;5091260;28;20659;-79
2020/12/13 01:36:03;;;;;;;11.73;6.20;;;;;13.90;100391.00;;;;5106477;28;20194;-79
2020/12/13 01:38:30;;;;;;;10.93;6.22;;;;;13.90;100401.00;;;;5089213;28;20664;-79
2020/12/13 01:40:58;;;;;;;14.02;7.05;;;;;13.90;100403.00;;;;5101063;28;20221;-79
2020/12/13 01:43:25;;;;;;;11.43;6.70;;;;;13.90;100405.00;;;;5109298;28;20857;-79
2020/12/13 01:45:51;;;;;;;10.73;5.90;;;;;13.90;100412.00;;;;5098216;28;20194;-79
2020/12/13 01:48:19;;;;;;;11.45;5.32;;;;;13.90;100406.00;;;;5088937;28;20198;-79
2020/12/13 01:50:53;;;;;;;11.07;6.03;;;;;13.90;100413.00;;;;5090101;28;20638;-79
2020/12/13 01:53:24;;;;;;;9.95;5.13;;;;;13.90;100417.00;;;;5089357;28;20206;-79
2020/12/13 01:55:55;;;;;;;10.45;6.07;;;;;13.90;100415.00;;;;5099177;28;20246;-79
2020/12/13 01:58:27;;;;;;;11.15;5.80;;;;;13.90;100419.00;;;;5106471;28;20560;-79
2020/12/13 02:00:56;;;;;;;11.77;6.38;;;;;13.90;100431.00;;;;5098046;28;20695;-79
2020/12/13 02:03:28;;;;;;;12.60;6.07;;;;;13.90;100431.00;;;;5088700;28;20206;-79
2020/12/13 02:06:01;;;;;;;11.13;5.93;;;;;13.80;100433.00;;;;5089920;28;20198;-80
2020/12/13 02:08:39;;;;;;;10.13;5.90;;;;;13.80;100429.00;;;;5088593;28;20205;-79
2020/12/13 02:11:06;;;;;;;10.38;5.53;;;;;13.90;100430.00;;;;5095407;28;20194;-79
2020/12/13 02:13:33;;;;;;;11.30;6.22;;;;;13.90;100431.00;;;;5099549;28;20203;-79
2020/12/13 02:16:01;;;;;;;11.15;5.70;;;;;13.90;100433.00;;;;5101341;28;20208;-79
2020/12/13 02:18:29;;;;;;;9.63;5.45;;;;;13.90;100438.00;;;;5107350;28;20205;-79
2020/12/13 02:20:56;;;;;;;8.60;5.43;;;;;13.90;100437.00;;;;5107408;28;20209;-79
2020/12/13 02:23:24;;;;;;;9.38;5.40;;;;;13.80;100442.00;;;;5068483;28;20207;-79
2020/12/13 02:25:51;;;;;;;9.85;5.38;;;;;13.80;100443.00;;;;5090650;28;20197;-79
2020/12/13 02:28:18;;;;;;;10.20;5.13;;;;;13.80;100443.00;;;;5109389;28;20202;-79
2020/12/13 02:30:44;;;;;;;10.85;6.10;;;;;13.80;100433.00;;;;5098571;28;20209;-79
2020/12/13 02:33:11;;;;;;;10.05;5.75;;;;;13.80;100440.00;;;;5088926;28;20197;-79
2020/12/13 02:35:38;;;;;;;10.30;6.25;;;;;13.80;100441.00;;;;5088848;28;20202;-79
2020/12/13 02:38:05;;;;;;;12.77;6.13;;;;;13.80;100449.00;;;;5089805;28;20187;-79
2020/12/13 02:40:33;;;;;;;10.43;5.68;;;;;13.80;100445.00;;;;5100670;28;20589;-79
2020/12/13 02:43:00;;;;;;;11.15;5.75;;;;;13.80;100441.00;;;;5109438;28;20205;-78
2020/12/13 02:45:26;;;;;;;10.40;6.50;;;;;13.80;100443.00;;;;5105782;28;21060;-80
2020/12/13 02:47:53;;;;;;;11.85;5.90;;;;;13.80;100454.00;;;;5095337;28;20694;-80
2020/12/13 02:50:20;;;;;;;12.48;5.60;;;;;13.80;100452.00;;;;5106644;28;20754;-80
2020/12/13 02:52:47;;;;;;;12.10;5.55;;;;;13.80;100453.00;;;;5106118;28;20939;-80
2020/12/13 02:55:13;;;;;;;13.55;5.93;;;;;13.80;100455.00;;;;5100925;28;20200;-80
2020/12/13 02:57:42;;;;;;;11.57;5.88;;;;;13.80;100454.00;;;;5107988;28;20236;-80
2020/12/13 03:00:09;;;;;;;10.75;6.03;;;;;13.90;100461.00;;;;5094379;28;20254;-80
2020/12/13 03:02:36;;;;;;;12.30;6.50;;;;;13.90;100460.00;;;;5093052;28;20203;-80
2020/12/13 03:05:03;;;;;;;11.48;5.82;;;;;13.90;100456.00;;;;5087720;28;20802;-80
2020/12/13 03:07:30;;;;;;;10.18;5.78;;;;;13.90;100454.00;;;;5088588;28;20205;-80
2020/12/13 03:09:56;;;;;;;11.82;5.50;;;;;13.90;100472.00;;;;5088676;28;20201;-80
2020/12/13 03:12:25;;;;;;;10.70;5.65;;;;;13.90;100474.00;;;;5104625;28;20202;-80
2020/12/13 03:14:53;;;;;;;9.45;5.97;;;;;13.90;100476.00;;;;5089166;28;20190;-80
2020/12/13 03:17:20;;;;;;;10.57;5.88;;;;;13.90;100473.00;;;;5087790;28;20256;-80
2020/12/13 03:19:47;;;;;;;12.75;5.90;;;;;13.90;100470.00;;;;5103646;28;20225;-80
2020/12/13 03:22:14;;;;;;;10.80;5.88;;;;;13.90;100475.00;;;;5103585;28;20201;-80
2020/12/13 03:24:41;;;;;;;11.65;5.60;;;;;13.90;100474.00;;;;5089720;28;20559;-80
2020/12/13 03:27:08;;;;;;;10.38;5.85;;;;;13.90;100476.00;;;;5091212;28;20205;-80
2020/12/13 03:29:35;;;;;;;10.75;6.22;;;;;13.90;100473.00;;;;5088090;28;20621;-80
2020/12/13 03:32:03;;;;;;;12.07;5.57;;;;;13.90;100473.00;;;;5088224;28;20210;-79
2020/12/13 03:34:29;;;;;;;10.15;6.10;;;;;13.90;100468.00;;;;5099257;28;20284;-80
2020/12/13 03:36:56;;;;;;;9.77;5.50;;;;;13.90;100475.00;;;;5104808;28;20186;-80
2020/12/13 03:39:23;;;;;;;8.57;5.50;;;;;13.90;100472.00;;;;5088521;28;20195;-80
2020/12/13 03:41:50;;;;;;;9.63;5.38;;;;;13.90;100474.00;;;;5106400;28;20193;-80
2020/12/13 03:44:16;;;;;;;11.38;5.20;;;;;13.90;100483.00;;;;5108483;28;20201;-80
2020/12/13 03:46:43;;;;;;;11.27;5.15;;;;;13.90;100488.00;;;;5087563;28;20743;-80
2020/12/13 03:49:11;;;;;;;10.48;5.43;;;;;13.90;100495.00;;;;5092625;28;20197;-79
2020/12/13 03:51:38;;;;;;;11.73;6.60;;;;;13.90;100486.00;;;;5099647;28;20197;-79
2020/12/13 03:54:04;;;;;;;10.75;5.82;;;;;13.90;100491.00;;;;5106825;28;20190;-80
2020/12/13 03:56:31;;;;;;;11.63;5.53;;;;;14.00;100499.00;;;;5108392;28;20213;-80
2020/12/13 03:58:58;;;;;;;10.68;5.78;;;;;14.00;100497.00;;;;5102996;28;20256;-80
2020/12/13 04:01:25;;;;;;;9.25;5.72;;;;;14.00;100503.00;;;;5095618;28;20622;-80
2020/12/13 04:03:51;;;;;;;12.02;6.15;;;;;14.00;100511.00;;;;5082866;28;20199;-80
2020/12/13 04:06:19;;;;;;;12.30;6.70;;;;;14.00;100514.00;;;;5090790;28;20198;-80
2020/12/13 04:08:46;;;;;;;10.98;5.75;;;;;14.00;100510.00;;;;5091374;28;20205;-80
2020/12/13 04:11:13;;;;;;;10.18;5.93;;;;;14.00;100520.00;;;;5091198;28;20205;-79
2020/12/13 04:13:40;;;;;;;10.80;5.70;;;;;14.00;100512.00;;;;5090502;28;20217;-80
2020/12/13 04:16:07;;;;;;;10.43;5.75;;;;;14.00;100519.00;;;;5098154;28;20195;-80
2020/12/13 04:18:33;;;;;;;9.55;5.93;;;;;14.00;100528.00;;;;5090646;28;20714;-80
2020/12/13 04:21:00;;;;;;;10.35;5.68;;;;;14.00;100528.00;;;;5102513;28;20222;-80
2020/12/13 04:23:28;;;;;;;13.07;6.00;;;;;14.00;100530.00;;;;5090183;28;20190;-80
2020/12/13 04:25:54;;;;;;;10.68;5.95;;;;;14.00;100535.00;;;;5094744;28;20203;-80
2020/12/13 04:28:21;;;;;;;9.48;5.63;;;;;14.00;100531.00;;;;5091065;28;20202;-80
2020/12/13 04:30:48;;;;;;;9.25;5.25;;;;;14.10;100530.00;;;;5090563;28;20198;-80
2020/12/13 04:33:15;;;;;;;10.88;5.97;;;;;14.10;100533.00;;;;5096803;28;20198;-81
2020/12/13 04:35:42;;;;;;;11.70;6.45;;;;;14.10;100540.00;;;;5101641;28;20198;-80
2020/12/13 04:38:08;;;;;;;9.48;4.93;;;;;14.10;100541.00;;;;5090516;28;20206;-80
2020/12/13 04:40:36;;;;;;;10.15;5.82;;;;;14.10;100543.00;;;;5098851;28;20221;-79
2020/12/13 04:43:03;;;;;;;10.75;5.95;;;;;14.10;100551.00;;;;5096347;28;20197;-80
2020/12/13 04:45:30;;;;;;;12.63;6.20;;;;;14.10;100552.00;;;;5110415;28;20206;-80
2020/12/13 04:48:05;;;;;;;11.50;6.25;;;;;14.00;100553.00;;;;5094980;28;20209;-80
2020/12/13 04:50:33;;;;;;;9.52;5.00;;;;;14.10;100557.00;;;;5102799;28;20691;-80
2020/12/13 04:53:03;;;;;;;10.18;5.50;;;;;14.10;100552.00;;;;5098622;28;20201;-80
2020/12/13 04:55:30;;;;;;;10.70;5.78;;;;;14.10;100552.00;;;;5095147;27;20209;-80
2020/12/13 04:57:58;;;;;;;10.15;5.95;;;;;14.00;100550.00;;;;5107159;28;20237;-79
2020/12/13 05:00:27;;;;;;;9.07;4.95;;;;;14.00;100566.00;;;;5095921;28;20232;-80
2020/12/13 05:02:54;;;;;;;9.25;5.28;;;;;14.00;100561.00;;;;5095808;28;20836;-80
2020/12/13 05:05:21;;;;;;;6.65;3.55;;;;;14.00;100562.00;;;;5106525;28;20198;-80
2020/12/13 05:07:48;;;;;;;9.05;4.78;;;;;14.10;100564.00;;;;5089054;28;20560;-80
2020/12/13 05:10:15;;;;;;;10.93;4.85;;;;;14.10;100562.00;;;;5095693;28;20205;-80
2020/12/13 05:12:42;;;;;;;9.07;5.18;;;;;14.10;100566.00;;;;5109617;28;20194;-79
2020/12/13 05:15:11;;;;;;;8.50;4.72;;;;;14.00;100564.00;;;;5109192;28;20551;-79
2020/12/13 05:17:37;;;;;;;7.75;4.22;;;;;14.10;100570.00;;;;5110047;28;20202;-80
2020/12/13 05:20:06;;;;;;;7.40;4.80;;;;;14.10;100570.00;;;;5106300;28;20229;-80
2020/12/13 05:22:38;;;;;;;8.48;5.00;;;;;14.00;100574.00;;;;5090930;28;20232;-79
2020/12/13 05:25:12;;;;;;;11.27;5.15;;;;;14.00;100590.00;;;;5089624;28;20194;-80
2020/12/13 05:27:41;;;;;;;10.25;5.43;;;;;14.10;100577.00;;;;5090945;28;20194;-80
2020/12/13 05:30:10;;;;;;;8.18;4.88;;;;;14.10;100580.00;;;;5089612;28;20202;-80
2020/12/13 05:32:37;;;;;;;8.45;5.03;;;;;14.10;100573.00;;;;5089875;28;20202;-80
2020/12/13 05:35:05;;;;;;;8.98;5.53;;;;;14.10;100577.00;;;;5094432;28;20201;-80
2020/12/13 05:37:33;;;;;;;9.85;5.05;;;;;14.10;100576.00;;;;5094389;28;20243;-79
2020/12/13 05:40:00;;;;;;;8.55;4.93;;;;;14.10;100575.00;;;;5093541;28;20592;-80
2020/12/13 05:42:31;;;;;;;6.30;3.85;;;;;14.10;100586.00;;;;5110041;28;20395;-79
2020/12/13 05:45:16;;;;;;;9.68;5.22;;;;;14.10;100583.00;;;;5106534;28;20213;-80
2020/12/13 05:48:14;;;;;;;6.18;4.28;;;;;14.10;100581.00;;;;5089384;28;20684;-80
2020/12/13 05:53:31;;;;;;;6.10;4.15;;;;;14.10;100588.00;;;;5096959;27;20201;-80
2020/12/13 05:55:58;;;;;;;9.07;5.00;;;;;14.10;100592.00;;;;5089656;28;20217;-80
2020/12/13 05:58:26;;;;;;;7.95;4.82;;;;;14.10;100593.00;;;;5089744;28;20226;-79
2020/12/13 06:00:54;;;;;;;6.90;4.53;;;;;14.10;100598.00;;;;5089310;28;20250;-80
2020/12/13 06:03:31;;;;;;;8.65;5.15;;;;;14.10;100602.00;;;;5093348;28;20205;-80
2020/12/13 06:06:04;;;;;;;7.45;4.38;;;;;14.10;100603.00;;;;5091680;28;20202;-79
2020/12/13 06:08:48;;;;;;;12.60;5.22;;;;;14.10;100605.00;;;;5103194;28;20197;-80
2020/12/13 06:11:16;;;;;;;8.05;4.65;;;;;14.20;100609.00;;;;5089531;28;20894;-80
2020/12/13 06:13:52;;;;;;;7.88;4.78;;;;;14.10;100608.00;;;;5093656;28;20193;-79
2020/12/13 06:16:19;;;;;;;6.55;3.83;;;;;14.20;100606.00;;;;5102337;28;20220;-79
2020/12/13 06:18:47;;;;;;;8.70;5.00;;;;;14.20;100606.00;;;;5081978;28;20217;-79
2020/12/13 06:21:15;;;;;;;9.07;5.28;;;;;14.20;100616.00;;;;5094124;28;20228;-78
2020/12/13 06:23:48;;;;;;;11.98;4.63;;;;;14.10;100613.00;;;;5075554;28;20194;-78
2020/12/13 06:26:14;;;;;;;8.40;4.82;;;;;14.20;100615.00;;;;5089150;28;20263;-79
2020/12/13 06:28:42;;;;;;;8.45;4.50;;;;;14.20;100627.00;;;;5092848;28;20198;-79
2020/12/13 06:31:09;;;;;;;10.00;5.03;;;;;14.20;100626.00;;;;5086115;28;20199;-79
2020/12/13 06:33:42;;;;;;;7.72;4.60;;;;;14.10;100626.00;;;;5082816;28;20195;-79
2020/12/13 06:36:10;;;;;;;8.68;4.40;;;;;14.20;100621.00;;;;5088758;28;20544;-79
2020/12/13 06:38:38;;;;;;;5.93;3.88;;;;;14.20;100619.00;;;;5088570;28;20195;-79
2020/12/13 06:41:07;;;;;;;7.65;4.15;;;;;14.20;100624.00;;;;5087994;28;20253;-79
2020/12/13 06:43:49;;;;;;;7.70;4.57;;;;;14.20;100628.00;;;;5088461;28;20198;-79
2020/12/13 06:46:19;;;;;;;7.85;4.80;;;;;14.20;100625.00;;;;5089998;28;20202;-78
2020/12/13 06:48:46;;;;;;;8.80;5.18;;;;;14.20;100633.00;;;;5087974;28;20221;-79
2020/12/13 06:51:18;;;;;;;6.45;4.20;;;;;14.20;100630.00;;;;5098970;28;20682;-79
2020/12/13 06:53:49;;;;;;;7.15;4.20;;;;;14.20;100632.00;;;;5086144;28;20194;-78
2020/12/13 06:56:17;;;;;;;11.70;5.07;;;;;14.20;100633.00;;;;5087247;28;20206;-79
2020/12/13 06:58:46;;;;;;;9.23;5.80;;;;;14.30;100640.00;;;;5088153;28;20272;-79
2020/12/13 07:01:16;;;;;;;10.68;5.05;;;;;14.20;100636.00;;;;5089997;28;20233;-80
2020/12/13 07:03:43;;;;;;;7.90;4.43;;;;;14.30;100640.00;;;;5085735;28;20675;-80
2020/12/13 07:06:16;;;;;;;9.35;5.85;;;;;14.30;100642.00;;;;5089787;28;20240;-79
2020/12/13 07:08:50;;;;;;;8.70;5.22;;;;;14.20;100638.00;;;;5087804;28;20220;-79
2020/12/13 07:11:18;;;;;;;7.85;5.07;;;;;14.30;100641.00;;;;5090899;28;20210;-79
2020/12/13 07:13:46;;;;;;;7.75;4.43;;;;;14.30;100647.00;;;;5087953;28;20233;-79
2020/12/13 07:16:34;;;;;;;7.75;4.50;;;;;14.20;100654.00;;;;5091312;28;20194;-79
2020/12/13 07:19:03;;;;;;;6.72;4.10;;;;;14.30;100650.00;;;;5076822;28;20209;-79
2020/12/13 07:21:31;;;;;;;7.93;4.80;;;;;14.30;100653.00;;;;5096220;28;20229;-79
2020/12/13 07:24:00;;;;;;;10.50;5.40;;;;;14.30;100653.00;;;;5089053;28;20194;-80
2020/12/13 07:26:28;;;;;;;6.65;4.47;;;;;14.30;100655.00;;;;5086624;28;20194;-80
2020/12/13 07:28:56;;;;;;;5.68;4.13;;;;;14.30;100666.00;;;;5074751;28;20194;-80
2020/12/13 07:31:25;;;;;;;6.93;4.10;;;;;14.30;100667.00;;;;5090062;28;20201;-80
2020/12/13 07:33:53;;;;;;;7.95;4.50;;;;;14.30;100661.00;;;;5092060;28;20198;-79
2020/12/13 07:36:20;;;;;;;6.82;4.80;;;;;14.30;100668.00;;;;5101200;28;20202;-80
2020/12/13 07:38:47;;;;;;;6.32;4.15;;;;;14.30;100677.00;;;;5089836;28;20607;-81
2020/12/13 07:41:19;;;;;;;7.15;4.47;;;;;14.30;100679.00;;;;5087154;28;20229;-81
2020/12/13 07:43:58;;;;;;;7.32;4.57;;;;;14.30;100684.00;;;;5090303;28;20202;-80
2020/12/13 07:46:26;;;;;;;11.82;5.20;;;;;14.30;100688.00;;;;5094051;28;20205;-80
2020/12/13 07:49:10;;;;;;;7.20;4.72;;;;;14.20;100696.00;;;;5090984;28;20205;-80
2020/12/13 07:51:38;;;;;;;6.88;4.22;;;;;14.30;100696.00;;;;5087980;28;20206;-81
2020/12/13 07:54:15;;;;;;;7.50;4.35;;;;;14.30;100694.00;;;;5091069;28;20201;-79
2020/12/13 07:56:44;;;;;;;7.85;4.85;;;;;14.30;100704.00;;;;5090078;28;20529;-79
2020/12/13 07:59:13;;;;;;;6.20;4.22;;;;;14.30;100702.00;;;;5102026;28;20225;-79
2020/12/13 08:01:41;;;;;;;6.00;4.30;;;;;14.30;100698.00;;;;5071168;28;20233;-79
2020/12/13 08:04:08;;;;;;;6.65;4.45;;;;;14.30;100708.00;;;;5100457;28;20199;-79
2020/12/13 08:06:35;;;;;;;7.20;5.00;;;;;14.30;100694.00;;;;5091362;28;20663;-79
2020/12/13 08:09:08;;;;;;;6.38;4.25;;;;;14.30;100702.00;;;;5109799;28;20229;-80
2020/12/13 08:11:35;;;;;;;9.52;4.82;;;;;14.40;100709.00;;;;5109330;28;20212;-79
2020/12/13 08:14:05;;;;;;;6.03;4.32;;;;;14.30;100716.00;;;;5111097;28;20210;-80
2020/12/13 08:16:33;;;;;;;6.38;4.05;;;;;14.40;100726.00;;;;5109850;28;20225;-79
2020/12/13 08:19:05;;;;;;;7.57;4.47;;;;;14.40;100728.00;;;;5111958;28;20682;-80
2020/12/13 08:21:41;;;;;;;6.85;4.03;;;;;14.30;100734.00;;;;5093070;28;20312;-80
2020/12/13 08:24:13;;;;;;;6.43;4.60;;;;;14.30;100734.00;;;;5070171;28;20210;-80
2020/12/13 08:26:42;;;;;;;7.28;4.35;;;;;14.30;100740.00;;;;5090317;28;20216;-80
2020/12/13 08:29:10;;;;;;;6.70;4.68;;;;;14.30;100739.00;;;;5097752;28;20289;-80
2020/12/13 08:31:38;;;;;;;7.57;5.43;;;;;14.30;100742.00;;;;5096171;28;20583;-80
2020/12/13 08:34:06;;;;;;;5.88;4.40;;;;;14.30;100745.00;;;;5090445;28;20209;-79
2020/12/13 08:36:34;;;;;;;5.95;4.03;;;;;14.30;100743.00;;;;5092364;28;20205;-79
2020/12/13 08:39:07;;;;;;;6.60;4.75;;;;;14.30;100755.00;;;;5091452;28;20214;-80
2020/12/13 08:41:34;;;;;;;9.98;4.63;;;;;14.30;100751.00;;;;5087860;28;20221;-80
2020/12/13 08:44:02;;;;;;;6.68;4.15;;;;;14.30;100754.00;;;;5090739;28;20214;-79
2020/12/13 08:46:37;;;;;;;6.90;3.92;;;;;14.30;100752.00;;;;5090858;28;20198;-78
2020/12/13 08:49:04;;;;;;;7.60;3.92;;;;;14.30;100754.00;;;;5090398;28;20301;-79
2020/12/13 08:51:31;;;;;;;7.85;4.57;;;;;14.30;100757.00;;;;5103240;28;20223;-79
2020/12/13 08:54:03;;;;;;;5.90;4.60;;;;;14.30;100759.00;;;;5111341;28;20204;-78
2020/12/13 08:56:37;;;;;;;9.57;4.90;;;;;14.30;100758.00;;;;5100793;28;20917;-78
2020/12/13 08:59:07;;;;;;;7.90;4.13;;;;;14.30;100758.00;;;;5116366;28;20223;-80
2020/12/13 09:01:37;;;;;;;10.13;5.30;;;;;14.30;100758.00;;;;5098506;28;20310;-79
2020/12/13 09:04:18;;;;;;;6.20;3.95;;;;;14.20;100768.00;;;;5089622;28;20194;-80
2020/12/13 09:06:54;;;;;;;6.25;3.90;;;;;14.30;100769.00;;;;5100393;28;20194;-80
2020/12/13 09:09:21;;;;;;;7.97;4.30;;;;;14.30;100769.00;;;;5090300;28;20197;-79
2020/12/13 09:11:48;;;;;;;7.97;4.20;;;;;14.30;100774.00;;;;5099502;28;20289;-79
2020/12/13 09:14:26;;;;;;;8.60;4.45;;;;;14.30;100774.00;;;;5111051;28;20285;-79
2020/12/13 09:16:53;;;;;;;7.78;4.32;;;;;14.30;100781.00;;;;5104024;28;20672;-79
2020/12/13 09:19:20;;;;;;;5.22;3.78;;;;;14.40;100776.00;;;;5090931;28;20194;-78
2020/12/13 09:21:49;;;;;;;7.03;4.68;;;;;14.40;100788.00;;;;5095671;28;20224;-78
2020/12/13 09:24:17;;;;;;;9.18;4.45;;;;;14.30;100793.00;;;;5103693;28;20213;-79
2020/12/13 09:26:57;;;;;;;5.43;4.10;;;;;14.20;100790.00;;;;5102018;28;20250;-78
2020/12/13 09:29:24;;;;;;;5.22;4.28;;;;;14.30;100791.00;;;;5069836;28;20984;-78
2020/12/13 09:31:51;;;;;;;6.88;3.75;;;;;14.30;100796.00;;;;5078290;28;20194;-78
2020/12/13 09:34:18;;;;;;;8.65;4.40;;;;;14.40;100804.00;;;;5088931;28;20194;-78
2020/12/13 09:36:45;;;;;;;8.75;4.40;;;;;14.40;100799.00;;;;5097010;28;20190;-78
2020/12/13 09:39:12;;;;;;;8.68;3.95;;;;;14.40;100811.00;;;;5083549;28;20205;-78
2020/12/13 09:41:39;;;;;;;6.32;4.15;;;;;14.40;100811.00;;;;5101936;28;20222;-80
2020/12/13 09:44:05;;;;;;;5.05;4.30;;;;;14.40;100808.00;;;;5096104;28;20667;-79
2020/12/13 09:46:32;;;;;;;5.10;3.50;;;;;14.40;100813.00;;;;5091735;28;21005;-78
2020/12/13 09:48:59;;;;;;;7.07;3.85;;;;;14.40;100811.00;;;;5098951;28;20493;-78
2020/12/13 09:51:27;;;;;;;5.70;3.95;;;;;14.40;100817.00;;;;5102691;28;20211;-78
2020/12/13 09:53:53;;;;;;;5.82;3.90;;;;;14.40;100822.00;;;;5085706;28;20199;-77
2020/12/13 09:56:20;;;;;;;7.47;4.03;;;;;14.40;100828.00;;;;5099854;28;20214;-77
2020/12/13 09:58:47;;;;;;;5.57;3.40;;;;;14.40;100826.00;;;;5096020;28;20226;-77
2020/12/13 10:01:15;;;;;;;6.03;3.50;;;;;14.50;100829.00;;;;5077456;28;20230;-77
2020/12/13 10:03:44;;;;;;;6.65;3.50;;;;;14.50;100832.00;;;;5083854;28;20648;-77
2020/12/13 10:06:36;;;;;;;8.00;3.95;;;;;14.50;100830.00;;;;5098835;28;20675;-77
2020/12/13 10:09:06;;;;;;;3.95;3.33;;;;;14.50;100830.00;;;;5096789;28;20206;-77
2020/12/13 10:11:35;;;;;;;8.55;4.00;;;;;14.50;100828.00;;;;5091833;28;20675;-77
2020/12/13 10:14:02;;;;;;;6.05;3.63;;;;;14.60;100830.00;;;;5091502;28;20656;-76
2020/12/13 10:16:29;;;;;;;6.45;3.30;;;;;14.60;100831.00;;;;5094479;28;20213;-76
2020/12/13 10:18:57;;;;;;;4.90;3.45;;;;;14.60;100828.00;;;;5089636;28;20228;-77
2020/12/13 10:21:25;;;;;;;7.72;3.80;;;;;14.60;100831.00;;;;5091893;28;20263;-76
2020/12/13 10:23:52;;;;;;;6.28;3.58;;;;;14.60;100830.00;;;;5090957;28;20220;-76
2020/12/13 10:26:23;;;;;;;7.38;3.95;;;;;14.60;100834.00;;;;5092743;28;20209;-77
2020/12/13 10:28:50;;;;;;;5.63;3.33;;;;;14.70;100834.00;;;;5118202;28;20186;-77
2020/12/13 10:31:17;;;;;;;9.35;4.07;;;;;14.70;100828.00;;;;5115705;28;20208;-79
2020/12/13 10:33:44;;;;;;;5.80;3.55;;;;;14.70;100820.00;;;;5110166;28;20206;-78
2020/12/13 10:36:13;;;;;;;5.85;3.75;;;;;14.70;100817.00;;;;5104804;28;20205;-78
2020/12/13 10:38:40;;;;;;;7.07;4.32;;;;;14.70;100819.00;;;;5094521;28;20186;-77
2020/12/13 10:41:08;;;;;;;7.25;3.97;;;;;14.80;100817.00;;;;5100857;28;20213;-78
2020/12/13 10:43:37;;;;;;;8.20;4.47;;;;;14.80;100813.00;;;;5093139;28;20193;-77
2020/12/13 10:46:04;;;;;;;7.78;3.88;;;;;14.80;100810.00;;;;5104537;28;20202;-77
2020/12/13 10:48:31;;;;;;;5.28;4.18;;;;;14.80;100807.00;;;;5090933;28;20205;-77
2020/12/13 10:50:58;;;;;;;9.13;4.13;;;;;14.80;100807.00;;;;5093515;28;20575;-78
2020/12/13 10:53:26;;;;;;;6.68;3.60;;;;;14.80;100800.00;;;;5092224;28;20649;-78
2020/12/13 10:55:53;;;;;;;6.22;3.60;;;;;14.90;100800.00;;;;5089939;28;20615;-77
2020/12/13 10:58:19;;;;;;;6.35;3.72;;;;;14.90;100800.00;;;;5090331;28;20637;-79
2020/12/13 11:00:48;;;;;;;6.35;3.88;;;;;14.90;100802.00;;;;5095450;28;20237;-78
2020/12/13 11:03:15;;;;;;;4.82;3.53;;;;;14.90;100803.00;;;;5088220;28;20194;-77
2020/12/13 11:05:42;;;;;;;5.18;3.75;;;;;14.90;100805.00;;;;5096929;28;20203;-77
2020/12/13 11:08:10;;;;;;;8.35;3.88;;;;;14.90;100804.00;;;;5102992;28;20195;-78
2020/12/13 11:10:37;;;;;;;6.30;3.53;;;;;14.90;100806.00;;;;5091093;28;20213;-77
2020/12/13 11:13:04;;;;;;;6.22;4.18;;;;;15.00;100804.00;;;;5089595;28;20205;-77
2020/12/13 11:15:31;;;;;;;7.40;3.78;;;;;15.00;100808.00;;;;5067921;28;20198;-77
2020/12/13 11:17:58;;;;;;;5.95;3.28;;;;;14.90;100817.00;;;;5091845;28;20205;-77
2020/12/13 11:20:25;;;;;;;5.50;3.55;;;;;14.90;100812.00;;;;5100158;28;20202;-76
2020/12/13 11:22:52;;;;;;;6.05;2.90;;;;;14.90;100807.00;;;;5088550;28;20204;-77
2020/12/13 11:25:18;;;;;;;4.93;3.60;;;;;14.90;100812.00;;;;5077677;28;20207;-76
2020/12/13 11:27:45;;;;;;;4.28;3.00;;;;;15.00;100803.00;;;;5073345;28;20217;-77
2020/12/13 11:30:12;;;;;;;5.00;3.13;;;;;15.00;100807.00;;;;5108004;28;20209;-76
2020/12/13 11:32:43;;;;;;;5.72;3.50;;;;;15.00;100811.00;;;;5097480;28;20194;-76
2020/12/13 11:35:12;;;;;;;6.25;2.95;;;;;15.10;100805.00;;;;5094569;28;20671;-76
2020/12/13 11:37:39;;;;;;;4.85;2.70;;;;;15.10;100803.00;;;;5094961;28;20591;-76
2020/12/13 11:40:06;;;;;;;7.50;3.15;;;;;15.10;100802.00;;;;5090159;28;20198;-76
2020/12/13 11:42:33;;;;;;;5.25;3.15;;;;;15.10;100806.00;;;;5081221;28;20641;-76
2020/12/13 11:45:00;;;;;;;5.07;2.60;;;;;15.10;100803.00;;;;5085198;28;20194;-77
2020/12/13 11:47:27;;;;;;;2.97;1.77;;;;;15.10;100797.00;;;;5087789;28;20202;-77
2020/12/13 11:49:54;;;;;;;3.67;1.98;;;;;15.10;100801.00;;;;5098409;28;20571;-78
2020/12/13 11:52:21;;;;;;;5.97;2.65;;;;;15.10;100800.00;;;;5089869;28;20203;-79
2020/12/13 11:54:48;;;;;;;3.50;2.40;;;;;15.10;100800.00;;;;5085469;28;20198;-78
2020/12/13 11:57:15;;;;;;;3.83;2.13;;;;;15.00;100799.00;;;;5091903;28;20218;-78
2020/12/13 11:59:41;;;;;;;4.47;2.13;;;;;15.00;100795.00;;;;5097871;28;20524;-79
2020/12/13 12:02:08;;;;;;;2.08;1.80;;;;;15.00;100797.00;;;;5099447;28;20225;-78
2020/12/13 12:04:35;;;;;;;3.20;1.73;;;;;15.00;100797.00;;;;5100083;28;20603;-80
2020/12/13 12:07:02;;;;;;;1.70;1.52;;;;;15.00;100798.00;;;;5109061;28;20215;-79
2020/12/13 12:09:29;;;;;;;3.75;2.10;;;;;15.00;100797.00;;;;5093185;28;20202;-80
2020/12/13 12:11:56;;;;;;;4.53;1.90;;;;;15.00;100806.00;;;;5095928;28;20202;-80